Time;durP1;ratioP1;P1;durP2;ratioP2;P2;SDS_P1;SDS_P2;PMS_P1;PMS_P2;Temp;Humidity;BMP_temperature;BMP_pressure;BME280_temperature;BME280_humidity;BME280_pressure;Samples;Min_cycle;Max_cycle;Signal;HPM_P1;HPM_P2
2021/05/11 00:02:08;;;;;;;4.82;1.30;;;17.10;70.70;;;;;;5062804;28;20469;-73
2021/05/11 00:04:33;;;;;;;3.28;1.40;;;17.10;70.90;;;;;;5067902;28;20036;-73
2021/05/11 00:06:59;;;;;;;4.38;1.30;;;17.10;70.90;;;;;;5066250;28;20484;-73
2021/05/11 00:09:25;;;;;;;3.55;1.17;;;17.10;71.10;;;;;;5090060;28;20666;-73
2021/05/11 00:11:50;;;;;;;4.22;1.52;;;17.00;71.30;;;;;;5078075;28;20542;-73
2021/05/11 00:14:16;;;;;;;4.10;1.30;;;17.00;71.30;;;;;;5070983;28;20032;-74
2021/05/11 00:16:42;;;;;;;3.72;1.40;;;17.00;71.50;;;;;;5076267;28;20039;-73
2021/05/11 00:19:10;;;;;;;3.78;1.20;;;17.00;71.50;;;;;;5062516;28;20086;-73
2021/05/11 00:21:36;;;;;;;5.05;1.30;;;17.00;71.50;;;;;;5092871;28;20039;-73
2021/05/11 00:24:01;;;;;;;6.45;1.50;;;17.00;71.50;;;;;;5091383;28;20465;-73
2021/05/11 00:26:27;;;;;;;4.72;1.20;;;16.90;71.50;;;;;;5094511;28;20606;-73
2021/05/11 00:28:53;;;;;;;3.90;1.30;;;16.90;71.60;;;;;;5075225;28;20450;-73
2021/05/11 00:31:18;;;;;;;2.75;1.15;;;16.90;71.80;;;;;;5087773;28;20393;-73
2021/05/11 00:33:44;;;;;;;6.60;1.40;;;16.90;71.80;;;;;;5077426;28;20472;-73
2021/05/11 00:36:10;;;;;;;4.50;1.30;;;16.90;71.80;;;;;;5095736;28;20032;-73
2021/05/11 00:38:35;;;;;;;6.40;1.50;;;16.90;71.90;;;;;;5094464;28;20036;-73
2021/05/11 00:41:01;;;;;;;3.72;1.45;;;16.80;72.10;;;;;;5076570;28;20028;-73
2021/05/11 00:43:27;;;;;;;4.82;1.25;;;16.80;72.10;;;;;;5077350;28;20552;-74
2021/05/11 00:45:52;;;;;;;4.88;1.48;;;16.80;72.10;;;;;;5078420;28;20021;-73
2021/05/11 00:48:18;;;;;;;3.97;1.60;;;16.70;72.20;;;;;;5064260;28;20034;-73
2021/05/11 00:50:44;;;;;;;4.25;1.27;;;16.70;72.90;;;;;;5072336;28;20020;-73
2021/05/11 00:53:10;;;;;;;5.30;1.67;;;16.70;73.50;;;;;;5077239;28;20503;-74
2021/05/11 00:55:35;;;;;;;6.70;2.05;;;16.70;73.60;;;;;;5059759;28;20020;-73
2021/05/11 00:58:02;;;;;;;4.22;1.38;;;16.60;73.80;;;;;;5075004;28;20028;-73
2021/05/11 01:00:29;;;;;;;5.68;1.80;;;16.60;74.20;;;;;;5045359;28;20489;-73
2021/05/11 01:02:55;;;;;;;6.90;1.60;;;16.60;74.60;;;;;;5064603;28;20033;-73
2021/05/11 01:05:21;;;;;;;8.27;1.50;;;16.50;75.10;;;;;;5075370;28;20131;-73
2021/05/11 01:07:47;;;;;;;4.75;1.13;;;16.50;75.80;;;;;;5087124;28;20032;-73
2021/05/11 01:10:13;;;;;;;7.20;1.60;;;16.60;76.40;;;;;;5077029;28;20150;-73
2021/05/11 01:12:39;;;;;;;6.00;1.60;;;16.60;76.80;;;;;;5099946;28;20072;-74
2021/05/11 01:15:06;;;;;;;4.20;1.48;;;16.50;76.90;;;;;;5087115;28;20113;-73
2021/05/11 01:17:35;;;;;;;4.03;1.52;;;16.50;77.10;;;;;;5057217;28;20496;-73
2021/05/11 01:20:05;;;;;;;;;;;16.50;77.40;;;;;;5094708;28;20107;-73
2021/05/11 01:25:03;;;;;;;7.53;1.80;;;16.50;77.60;;;;;;5092423;28;20504;-73
2021/05/11 01:30:34;;;;;;;7.95;1.75;;;16.40;77.70;;;;;;5077457;28;20374;-73
2021/05/11 02:23:53;;;;;;;5.70;2.17;;;15.90;80.60;;;;;;5084292;28;20427;-75
2021/05/11 02:26:19;;;;;;;4.43;1.85;;;15.90;80.90;;;;;;5089146;28;20520;-75
2021/05/11 02:28:45;;;;;;;10.23;2.40;;;15.80;81.10;;;;;;5093184;28;20032;-75
2021/05/11 02:31:11;;;;;;;5.38;2.17;;;15.80;81.80;;;;;;5093509;28;20143;-75
2021/05/11 02:33:36;;;;;;;5.20;2.17;;;15.90;81.20;;;;;;5092730;28;20469;-75
2021/05/11 02:36:03;;;;;;;6.95;2.35;;;15.80;81.20;;;;;;5073408;28;20456;-75
2021/05/11 02:38:28;;;;;;;5.63;2.22;;;15.80;81.20;;;;;;5089061;28;20028;-75
2021/05/11 02:40:54;;;;;;;4.28;2.15;;;15.80;81.40;;;;;;5086198;28;20373;-75
2021/05/11 02:43:27;;;;;;;5.30;2.13;;;15.80;81.30;;;;;;5090539;28;20141;-76
2021/05/11 02:45:53;;;;;;;6.03;1.95;;;15.80;81.20;;;;;;5077834;28;20112;-75
2021/05/11 02:48:19;;;;;;;8.07;2.13;;;15.80;81.30;;;;;;5072880;28;20111;-75
2021/05/11 02:50:44;;;;;;;9.05;2.65;;;15.80;81.40;;;;;;5075233;28;20127;-75
2021/05/11 02:53:10;;;;;;;5.13;2.50;;;15.70;81.30;;;;;;5088276;28;20510;-75
2021/05/11 02:55:35;;;;;;;7.32;2.47;;;15.70;81.20;;;;;;5069097;28;20078;-75
2021/05/11 02:58:01;;;;;;;7.25;2.30;;;15.70;81.30;;;;;;5058153;28;20483;-76
2021/05/11 03:00:28;;;;;;;8.10;2.83;;;15.70;81.50;;;;;;5092668;28;20020;-75
2021/05/11 03:02:57;;;;;;;6.05;2.40;;;15.70;81.80;;;;;;5074262;28;20039;-75
2021/05/11 03:05:23;;;;;;;10.30;2.83;;;15.70;82.00;;;;;;5089875;28;20467;-75
2021/05/11 03:07:49;;;;;;;5.82;2.40;;;15.70;82.00;;;;;;5073550;28;20068;-75
2021/05/11 03:10:18;;;;;;;5.35;2.47;;;15.70;82.10;;;;;;5092342;28;20055;-76
2021/05/11 03:12:44;;;;;;;6.80;2.35;;;15.60;82.30;;;;;;5081474;28;20389;-75
2021/05/11 03:15:11;;;;;;;9.15;2.60;;;15.60;82.30;;;;;;5092235;28;20020;-76
2021/05/11 03:17:38;;;;;;;4.53;2.17;;;15.60;82.40;;;;;;5088519;28;20029;-75
2021/05/11 03:20:05;;;;;;;9.70;2.67;;;15.70;82.50;;;;;;5074003;28;20123;-75
2021/05/11 03:22:31;;;;;;;6.90;2.67;;;15.70;82.40;;;;;;5087800;28;20157;-75
2021/05/11 03:24:57;;;;;;;5.95;2.55;;;15.70;82.30;;;;;;5085500;28;20027;-76
2021/05/11 03:27:22;;;;;;;4.20;2.13;;;15.70;82.00;;;;;;5091525;28;20043;-75
2021/05/11 03:29:48;;;;;;;7.22;2.33;;;15.70;82.00;;;;;;5074364;28;20549;-75
2021/05/11 03:32:14;;;;;;;4.55;1.98;;;15.70;82.00;;;;;;5084888;28;20037;-76
2021/05/11 03:34:39;;;;;;;5.88;2.42;;;15.70;82.00;;;;;;5054974;28;20055;-75
2021/05/11 03:37:05;;;;;;;4.10;2.03;;;15.60;81.90;;;;;;5090279;28;20380;-75
2021/05/11 03:39:36;;;;;;;6.72;2.60;;;15.70;82.00;;;;;;5074543;28;20115;-75
2021/05/11 03:42:08;;;;;;;5.65;2.35;;;15.60;82.10;;;;;;5090132;28;20024;-75
2021/05/11 03:44:34;;;;;;;5.32;2.60;;;15.70;82.30;;;;;;5080893;28;20477;-75
2021/05/11 03:47:00;;;;;;;4.00;2.15;;;15.60;82.40;;;;;;5090001;28;20028;-75
2021/05/11 03:49:26;;;;;;;5.55;2.47;;;15.60;82.50;;;;;;5091903;28;20090;-75
2021/05/11 03:51:51;;;;;;;6.38;2.58;;;15.60;82.40;;;;;;5091382;28;20028;-75
2021/05/11 03:54:17;;;;;;;5.57;2.17;;;15.60;82.40;;;;;;5073653;28;20397;-75
2021/05/11 03:56:42;;;;;;;5.15;2.03;;;15.60;82.40;;;;;;5072947;28;20021;-76
2021/05/11 03:59:08;;;;;;;9.73;2.28;;;15.60;82.40;;;;;;5054434;28;20036;-75
2021/05/11 04:01:34;;;;;;;4.53;2.88;;;15.50;82.50;;;;;;5052720;28;20477;-75
2021/05/11 04:04:00;;;;;;;4.35;2.20;;;15.50;82.70;;;;;;5083292;28;20040;-75
2021/05/11 04:06:25;;;;;;;4.60;2.40;;;15.50;83.00;;;;;;5089123;28;20112;-75
2021/05/11 04:08:55;;;;;;;4.10;2.40;;;15.40;83.00;;;;;;5081749;28;20052;-75
2021/05/11 04:11:41;;;;;;;5.80;2.35;;;15.40;83.20;;;;;;5074302;28;20024;-75
2021/05/11 04:16:52;;;;;;;5.55;2.63;;;15.40;83.40;;;;;;5088982;28;20043;-76
2021/05/11 04:19:17;;;;;;;3.95;2.15;;;15.40;83.60;;;;;;5073589;28;20040;-75
2021/05/11 04:21:43;;;;;;;4.63;2.30;;;15.40;83.60;;;;;;5085238;28;20028;-75
2021/05/11 04:24:09;;;;;;;6.47;2.50;;;15.40;83.60;;;;;;5072661;28;20053;-75
2021/05/11 04:26:34;;;;;;;5.78;2.88;;;15.40;84.20;;;;;;5074680;28;20077;-75
2021/05/11 04:29:01;;;;;;;5.90;2.58;;;15.40;83.70;;;;;;5083965;28;20032;-75
2021/05/11 04:31:27;;;;;;;5.22;2.58;;;15.50;83.70;;;;;;5091853;28;20043;-75
2021/05/11 04:33:56;;;;;;;3.65;2.53;;;15.50;83.70;;;;;;5092170;28;20028;-75
2021/05/11 04:36:22;;;;;;;4.18;2.35;;;15.50;83.60;;;;;;5091080;28;20032;-75
2021/05/11 04:38:47;;;;;;;6.65;2.88;;;15.50;83.70;;;;;;5091280;28;20028;-75
2021/05/11 04:41:13;;;;;;;4.15;2.65;;;15.50;83.70;;;;;;5073221;28;20061;-75
2021/05/11 04:43:40;;;;;;;4.22;2.50;;;15.50;83.80;;;;;;5090592;28;20059;-76
2021/05/11 04:48:41;;;;;;;5.38;3.03;;;15.50;83.90;;;;;;5089661;28;20032;-75
2021/05/11 04:51:07;;;;;;;6.55;2.78;;;15.50;83.90;;;;;;5094840;28;20031;-75
2021/05/11 04:53:33;;;;;;;5.90;3.22;;;15.50;84.10;;;;;;5086104;28;20389;-75
2021/05/11 04:55:58;;;;;;;4.05;3.10;;;15.50;84.20;;;;;;5083626;28;20020;-75
2021/05/11 04:58:24;;;;;;;5.82;3.22;;;15.50;84.20;;;;;;5095252;28;20391;-75
2021/05/11 05:00:51;;;;;;;4.28;3.00;;;15.50;84.20;;;;;;5077309;28;20058;-75
2021/05/11 05:03:24;;;;;;;6.47;3.45;;;15.50;84.20;;;;;;5095005;28;20024;-75
2021/05/11 05:05:50;;;;;;;4.20;2.97;;;15.60;84.50;;;;;;5095447;28;20020;-75
2021/05/11 05:08:15;;;;;;;6.10;3.40;;;15.60;84.40;;;;;;5093949;28;20115;-75
2021/05/11 05:10:41;;;;;;;4.28;3.35;;;15.60;84.50;;;;;;5089925;28;20036;-75
2021/05/11 05:13:07;;;;;;;6.68;3.10;;;15.60;84.50;;;;;;5089315;28;20036;-75
2021/05/11 05:15:32;;;;;;;6.43;3.08;;;15.60;84.50;;;;;;5070198;28;20553;-76
2021/05/11 05:17:58;;;;;;;4.75;3.00;;;15.60;84.50;;;;;;5092698;28;20119;-75
2021/05/11 05:20:24;;;;;;;5.10;3.30;;;15.60;84.40;;;;;;5093983;28;20068;-75
2021/05/11 05:22:50;;;;;;;4.32;2.78;;;15.70;84.40;;;;;;5092575;28;20039;-75
2021/05/11 05:25:22;;;;;;;6.25;3.60;;;15.70;84.40;;;;;;5074449;28;20039;-75
2021/05/11 05:30:20;;;;;;;8.93;3.65;;;15.70;84.60;;;;;;5094058;28;20074;-75
2021/05/11 05:32:45;;;;;;;9.65;3.25;;;15.70;84.80;;;;;;5094208;28;20092;-76
2021/05/11 05:35:11;;;;;;;4.45;2.75;;;15.70;84.80;;;;;;5094986;28;20107;-75
2021/05/11 05:37:37;;;;;;;6.40;3.20;;;15.80;84.90;;;;;;5067744;28;20031;-75
2021/05/11 05:40:06;;;;;;;4.88;3.20;;;15.80;84.80;;;;;;5091212;28;20453;-76
2021/05/11 05:42:32;;;;;;;5.13;3.28;;;15.80;84.80;;;;;;5092912;28;20044;-76
2021/05/11 05:44:57;;;;;;;7.03;3.38;;;15.80;84.80;;;;;;5093907;28;20117;-75
2021/05/11 05:47:23;;;;;;;5.07;3.17;;;15.80;84.70;;;;;;5093800;28;20054;-76
2021/05/11 05:49:52;;;;;;;4.38;3.30;;;15.80;84.60;;;;;;5047325;28;20040;-75
2021/05/11 05:52:22;;;;;;;7.47;3.92;;;15.80;84.60;;;;;;5066648;28;20064;-76
2021/05/11 05:54:48;;;;;;;7.13;3.22;;;15.90;84.90;;;;;;5058929;28;20138;-75
2021/05/11 05:57:15;;;;;;;9.23;3.92;;;15.90;84.80;;;;;;5071835;28;20506;-75
2021/05/11 05:59:41;;;;;;;8.70;3.83;;;15.90;84.80;;;;;;5088513;28;20059;-75
2021/05/11 06:02:14;;;;;;;5.15;3.35;;;15.90;84.80;;;;;;5090893;28;20073;-74
2021/05/11 06:04:40;;;;;;;6.40;3.17;;;15.90;84.70;;;;;;5090311;28;20119;-74
2021/05/11 06:07:06;;;;;;;5.65;3.95;;;15.90;84.60;;;;;;5075941;28;20114;-73
2021/05/11 06:09:31;;;;;;;7.90;4.07;;;15.90;84.40;;;;;;5075642;28;20126;-73
2021/05/11 06:17:40;;;;;;;5.93;3.90;;;16.00;84.50;;;;;;5074118;28;20052;-74
2021/05/11 06:19:48;;;;;;;6.22;4.03;;;16.00;84.60;;;;;;5081603;28;20028;-74
2021/05/11 06:22:15;;;;;;;7.47;4.20;;;16.00;84.40;;;;;;5094169;28;20078;-74
2021/05/11 06:24:41;;;;;;;8.20;4.55;;;16.10;84.30;;;;;;5088602;28;20028;-73
2021/05/11 06:27:08;;;;;;;7.45;4.40;;;16.10;84.20;;;;;;5106985;28;20060;-73
2021/05/11 06:29:39;;;;;;;9.70;4.80;;;16.20;84.30;;;;;;5088582;28;20393;-74
2021/05/11 06:32:06;;;;;;;7.45;3.90;;;16.30;84.10;;;;;;5073748;28;20029;-75
2021/05/11 06:34:32;;;;;;;7.63;4.28;;;16.30;83.90;;;;;;5074276;28;20392;-73
2021/05/11 06:36:58;;;;;;;8.18;4.15;;;16.40;83.70;;;;;;5064849;28;20028;-73
2021/05/11 06:39:24;;;;;;;7.55;4.30;;;16.50;83.50;;;;;;5074994;28;20039;-73
2021/05/11 06:41:52;;;;;;;8.68;3.60;;;16.60;83.30;;;;;;5083560;28;20024;-73
2021/05/11 06:54:15;;;;;;;6.10;3.83;;;17.30;80.30;;;;;;5093551;28;20115;-73
2021/05/11 06:56:45;;;;;;;7.25;4.00;;;17.50;80.10;;;;;;5080173;28;20215;-73
2021/05/11 06:59:12;;;;;;;7.68;4.30;;;17.60;79.50;;;;;;5074282;28;20017;-73
2021/05/11 07:01:38;;;;;;;8.18;4.32;;;17.70;78.70;;;;;;5092891;28;20032;-73
2021/05/11 07:04:04;;;;;;;12.23;4.70;;;17.60;78.30;;;;;;5092747;28;20078;-74
2021/05/11 07:06:29;;;;;;;7.20;4.22;;;17.60;78.40;;;;;;5094026;28;20485;-73
2021/05/11 07:09:00;;;;;;;10.65;4.03;;;17.70;78.40;;;;;;5058575;28;20035;-73
2021/05/11 07:13:08;;;;;;;6.57;3.85;;;17.70;78.40;;;;;;5074608;28;20040;-73
2021/05/11 07:14:14;;;;;;;6.40;3.60;;;17.70;78.50;;;;;;5092092;28;20036;-73
2021/05/11 07:16:39;;;;;;;8.63;3.65;;;17.70;78.90;;;;;;5074363;28;20036;-73
2021/05/11 07:19:05;;;;;;;5.45;3.08;;;17.70;78.00;;;;;;5092932;28;20028;-73
2021/05/11 07:21:30;;;;;;;7.72;3.00;;;17.70;78.10;;;;;;5075086;28;20156;-74
2021/05/11 07:23:57;;;;;;;4.93;3.00;;;17.70;78.00;;;;;;5058163;28;20060;-73
2021/05/11 07:26:28;;;;;;;8.40;2.90;;;17.60;78.40;;;;;;5084817;28;20032;-73
2021/05/11 07:29:11;;;;;;;5.75;3.03;;;17.60;78.10;;;;;;5092098;28;20111;-73
2021/05/11 07:31:37;;;;;;;8.60;3.38;;;17.70;78.30;;;;;;5071504;28;20040;-73
2021/05/11 07:34:05;;;;;;;4.50;2.65;;;17.60;78.40;;;;;;5071576;28;20393;-73
2021/05/11 07:36:31;;;;;;;4.22;2.70;;;17.70;78.60;;;;;;5089253;28;20043;-73
2021/05/11 07:38:56;;;;;;;7.07;2.65;;;17.80;78.70;;;;;;5093045;28;20063;-74
2021/05/11 07:41:22;;;;;;;5.88;2.60;;;17.70;78.50;;;;;;5057663;28;20059;-74
2021/05/11 07:43:53;;;;;;;6.18;2.78;;;17.80;78.50;;;;;;5073802;28;20054;-74
2021/05/11 08:05:03;;;;;;;5.60;1.85;;;17.70;77.10;;;;;;5092746;28;20032;-74
2021/05/11 08:10:28;;;;;;;5.97;2.00;;;17.70;77.00;;;;;;5083189;28;20047;-74
2021/05/11 08:15:40;;;;;;;6.40;2.88;;;17.70;77.70;;;;;;5083993;28;20036;-74
2021/05/11 08:28:39;;;;;;;10.40;4.45;;;17.70;78.50;;;;;;5080282;28;20371;-74
2021/05/11 08:31:04;;;;;;;6.13;2.80;;;17.70;78.80;;;;;;5078155;28;20504;-74
2021/05/11 08:33:30;;;;;;;10.65;3.50;;;17.60;78.80;;;;;;5095900;28;20186;-74
2021/05/11 08:35:56;;;;;;;11.18;3.00;;;17.60;79.00;;;;;;5086536;28;20416;-74
2021/05/11 08:38:22;;;;;;;9.00;3.33;;;17.60;79.30;;;;;;5074089;28;20115;-74
2021/05/11 08:40:47;;;;;;;8.27;2.70;;;17.60;79.10;;;;;;5095704;28;20036;-74
2021/05/11 08:43:33;;;;;;;7.40;2.83;;;17.60;79.00;;;;;;5093910;28;20047;-74
2021/05/11 08:46:01;;;;;;;7.30;2.50;;;17.60;78.70;;;;;;5075652;28;20385;-74
2021/05/11 08:48:28;;;;;;;6.25;2.38;;;17.50;78.90;;;;;;5092728;28;20384;-74
2021/05/11 09:32:35;;;;;;;6.13;2.67;;;17.20;81.10;;;;;;5077409;28;20036;-74
2021/05/11 09:57:02;;;;;;;9.27;4.15;;;17.30;82.30;;;;;;5094093;28;20020;-75
2021/05/11 10:10:53;;;;;;;7.13;3.28;;;17.70;78.90;;;;;;5087666;28;19920;-74
2021/05/11 10:46:54;;;;;;;6.63;1.48;;;18.30;70.60;;;;;;5073514;28;20037;-74
2021/05/11 10:49:37;;;;;;;5.20;1.95;;;18.30;70.60;;;;;;5073286;28;20017;-74
2021/05/11 10:52:15;;;;;;;3.42;1.98;;;18.20;70.60;;;;;;5088895;28;20033;-74
2021/05/11 10:54:50;;;;;;;5.57;2.42;;;18.10;71.60;;;;;;5092392;28;20103;-74
2021/05/11 10:57:26;;;;;;;5.95;2.28;;;18.00;71.80;;;;;;5093532;28;20031;-74
2021/05/11 11:00:14;;;;;;;5.15;2.20;;;17.90;72.70;;;;;;5093519;28;20024;-74
2021/05/11 11:02:45;;;;;;;4.45;2.78;;;17.90;73.00;;;;;;5075330;28;20481;-74
2021/05/11 11:05:12;;;;;;;6.32;2.20;;;17.90;73.50;;;;;;5093360;28;20032;-74
2021/05/11 11:07:41;;;;;;;5.75;2.45;;;17.90;73.60;;;;;;5084102;28;20082;-74
2021/05/11 11:10:07;;;;;;;;;;;17.90;72.40;;;;;;5093282;28;20473;-74
2021/05/11 11:12:36;;;;;;;5.85;1.85;;;17.80;72.80;;;;;;5092718;28;19916;-75
2021/05/11 11:15:11;;;;;;;4.10;1.70;;;17.80;73.60;;;;;;5085669;28;20393;-74
2021/05/11 11:17:41;;;;;;;7.72;1.88;;;17.90;72.90;;;;;;5092639;28;20020;-74
2021/05/11 11:20:11;;;;;;;5.15;1.77;;;18.10;72.10;;;;;;5092726;28;20024;-74
2021/05/11 11:25:22;;;;;;;3.92;1.52;;;18.30;70.90;;;;;;5080798;28;20059;-74
2021/05/11 11:27:48;;;;;;;7.82;2.05;;;18.40;70.60;;;;;;5091806;28;20476;-75
2021/05/11 11:30:15;;;;;;;7.55;1.80;;;18.50;70.30;;;;;;5074944;28;20024;-73
2021/05/11 11:32:41;;;;;;;5.20;1.70;;;18.60;69.90;;;;;;5091996;28;20392;-73
2021/05/11 11:35:09;;;;;;;5.85;1.98;;;18.60;69.70;;;;;;5089147;28;20158;-74
2021/05/11 11:37:35;;;;;;;5.72;2.67;;;18.60;69.50;;;;;;5092542;28;20021;-74
2021/05/11 11:40:07;;;;;;;6.00;2.78;;;18.60;69.40;;;;;;5074904;28;20431;-75
2021/05/11 11:42:39;;;;;;;9.30;3.10;;;18.50;69.50;;;;;;5078422;28;20020;-74
2021/05/11 11:45:12;;;;;;;8.82;2.88;;;18.50;70.00;;;;;;5072200;28;20405;-74
2021/05/11 11:47:50;;;;;;;5.97;3.00;;;18.40;69.80;;;;;;5054563;28;20029;-74
2021/05/11 11:50:16;;;;;;;5.38;2.92;;;18.30;70.50;;;;;;5072713;28;20082;-74
2021/05/11 11:58:21;;;;;;;7.88;3.47;;;18.20;71.70;;;;;;5093042;28;20113;-73
2021/05/11 12:00:47;;;;;;;7.47;4.05;;;18.10;71.80;;;;;;5096686;28;20453;-74
2021/05/11 12:03:13;;;;;;;6.22;3.58;;;18.10;72.20;;;;;;5078667;28;20032;-74
2021/05/11 12:05:41;;;;;;;9.98;3.65;;;18.10;72.40;;;;;;5077824;28;20033;-75
2021/05/11 12:08:21;;;;;;;4.60;2.80;;;18.00;72.20;;;;;;5076284;28;20021;-74
2021/05/11 12:10:50;;;;;;;8.90;2.90;;;18.10;71.30;;;;;;5076171;28;20317;-75
2021/05/11 12:13:25;;;;;;;6.60;3.50;;;18.00;71.70;;;;;;5094726;28;20032;-74
2021/05/11 12:16:12;;;;;;;7.00;3.35;;;18.10;70.90;;;;;;5078310;28;20020;-74
2021/05/11 12:18:44;;;;;;;8.43;3.15;;;18.10;70.20;;;;;;5096331;28;20069;-74
2021/05/11 12:21:10;;;;;;;7.20;3.28;;;18.10;70.60;;;;;;5096539;28;20051;-74
2021/05/11 12:23:36;;;;;;;10.02;3.35;;;18.10;70.60;;;;;;5092184;28;20025;-74
2021/05/11 12:26:05;;;;;;;5.38;3.38;;;18.30;70.80;;;;;;5058250;28;20453;-74
2021/05/11 12:28:39;;;;;;;7.32;4.00;;;18.40;70.60;;;;;;5076078;28;20124;-74
2021/05/11 12:31:09;;;;;;;9.25;3.80;;;18.40;70.00;;;;;;5084520;28;20142;-74
2021/05/11 12:33:43;;;;;;;8.52;4.13;;;18.50;70.50;;;;;;5068879;28;20553;-74
2021/05/11 12:36:24;;;;;;;6.95;4.03;;;18.60;70.90;;;;;;5077687;28;20028;-74
2021/05/11 12:38:50;;;;;;;8.73;4.82;;;18.60;70.90;;;;;;5096173;28;20020;-74
2021/05/11 12:41:34;;;;;;;7.68;4.50;;;18.80;70.30;;;;;;5095924;28;20024;-74
2021/05/11 12:44:01;;;;;;;9.63;4.70;;;18.80;69.60;;;;;;5095655;28;20105;-74
2021/05/11 12:46:29;;;;;;;10.32;4.30;;;18.80;69.50;;;;;;5064572;28;20033;-74
2021/05/11 12:48:55;;;;;;;7.95;3.83;;;18.90;69.60;;;;;;5075492;28;20017;-75
2021/05/11 12:51:42;;;;;;;8.63;4.25;;;18.90;69.60;;;;;;5075408;28;20032;-74
2021/05/11 12:54:49;;;;;;;11.65;4.30;;;19.00;69.30;;;;;;5075421;28;20021;-74
2021/05/11 12:57:42;;;;;;;6.10;3.88;;;19.10;69.90;;;;;;5017910;28;20513;-74
2021/05/11 13:00:12;;;;;;;11.52;4.57;;;19.20;68.60;;;;;;5102938;28;20028;-74
2021/05/11 13:27:06;;;;;;;10.15;3.25;;;19.10;67.20;;;;;;5067141;28;20039;-75
2021/05/11 13:32:11;;;;;;;7.35;3.50;;;19.00;67.40;;;;;;5074634;28;20028;-74
2021/05/11 13:34:37;;;;;;;5.63;2.88;;;18.90;67.60;;;;;;5056755;28;20473;-74
2021/05/11 13:37:03;;;;;;;8.95;2.90;;;18.90;67.80;;;;;;5060576;28;20069;-87
2021/05/11 13:39:28;;;;;;;6.68;2.90;;;18.90;68.00;;;;;;5096412;28;20380;-85
2021/05/11 13:41:54;;;;;;;7.97;3.10;;;19.00;67.60;;;;;;5095627;28;20039;-87
2021/05/11 13:44:19;;;;;;;6.75;3.30;;;18.90;67.30;;;;;;5073911;28;20052;-87
2021/05/11 13:46:45;;;;;;;11.82;3.65;;;18.90;67.40;;;;;;5073241;28;20052;-76
2021/05/11 13:49:14;;;;;;;8.45;3.30;;;18.90;67.50;;;;;;5074644;28;20504;-76
2021/05/11 13:51:39;;;;;;;8.18;3.40;;;18.90;67.50;;;;;;5074544;28;20025;-76
2021/05/11 13:54:07;;;;;;;6.80;3.17;;;19.00;67.40;;;;;;5090181;28;20040;-76
2021/05/11 14:02:15;;;;;;;8.73;3.30;;;19.10;66.40;;;;;;5057031;28;20068;-76
2021/05/11 14:04:40;;;;;;;6.60;3.45;;;19.00;66.70;;;;;;5054383;28;20048;-76
2021/05/11 14:07:06;;;;;;;9.43;3.55;;;18.90;66.20;;;;;;5054292;28;20548;-76
2021/05/11 14:09:32;;;;;;;6.28;3.30;;;18.90;66.10;;;;;;5054178;28;20037;-76
2021/05/11 14:11:58;;;;;;;8.43;3.33;;;18.80;66.40;;;;;;5069534;28;20033;-76
2021/05/11 14:14:24;;;;;;;8.85;3.03;;;18.70;66.30;;;;;;5057903;28;20481;-76
2021/05/11 14:16:50;;;;;;;8.05;2.72;;;18.60;66.00;;;;;;5074109;28;20043;-76
2021/05/11 14:19:18;;;;;;;8.25;2.92;;;18.60;66.10;;;;;;5074091;28;20078;-76
2021/05/11 14:21:44;;;;;;;11.63;3.70;;;18.60;66.70;;;;;;5073546;28;20052;-76
2021/05/11 14:24:10;;;;;;;10.07;3.80;;;18.50;67.10;;;;;;5058046;28;20033;-76
2021/05/11 14:26:36;;;;;;;11.35;3.38;;;18.40;67.70;;;;;;5053897;28;20025;-76
2021/05/11 14:29:03;;;;;;;6.10;3.10;;;18.40;68.10;;;;;;5053694;28;20108;-76
2021/05/11 14:31:29;;;;;;;7.47;3.13;;;18.40;68.40;;;;;;5068047;28;20162;-75
2021/05/11 14:33:55;;;;;;;10.18;3.47;;;18.40;68.40;;;;;;5065069;28;20483;-75
2021/05/11 14:36:21;;;;;;;9.07;3.40;;;18.40;68.60;;;;;;5072579;28;20051;-75
2021/05/11 14:38:47;;;;;;;7.75;3.25;;;18.30;68.50;;;;;;5073473;28;20033;-75
2021/05/11 14:41:12;;;;;;;7.43;2.70;;;18.30;69.20;;;;;;5073040;28;20389;-75
2021/05/11 14:43:40;;;;;;;7.82;2.70;;;18.30;68.90;;;;;;5071137;28;20045;-75
2021/05/11 14:46:07;;;;;;;4.72;2.22;;;18.20;68.60;;;;;;5071917;28;20111;-76
2021/05/11 14:48:33;;;;;;;7.22;3.00;;;18.20;69.00;;;;;;5071541;28;20040;-75
2021/05/11 14:51:00;;;;;;;4.50;2.25;;;18.20;68.60;;;;;;5072090;28;20056;-75
2021/05/11 14:53:26;;;;;;;6.88;2.92;;;18.20;69.00;;;;;;5103802;28;20140;-75
2021/05/11 14:55:52;;;;;;;7.85;2.63;;;18.20;69.20;;;;;;5071223;28;20103;-76
2021/05/11 14:58:18;;;;;;;5.45;2.40;;;18.20;69.60;;;;;;5072189;28;20542;-75
2021/05/11 15:00:44;;;;;;;6.53;2.83;;;18.20;70.00;;;;;;5071734;28;20040;-74
2021/05/11 15:03:11;;;;;;;6.63;2.60;;;18.20;70.40;;;;;;5075163;28;20082;-75
2021/05/11 15:05:37;;;;;;;5.25;2.70;;;18.20;70.30;;;;;;5073060;28;20021;-75
2021/05/11 15:08:04;;;;;;;7.75;1.58;;;18.20;70.60;;;;;;5072174;28;20028;-74
2021/05/11 15:10:30;;;;;;;7.05;2.92;;;18.10;70.80;;;;;;5071675;28;20111;-75
2021/05/11 15:12:56;;;;;;;11.70;3.80;;;18.20;71.40;;;;;;5071508;28;20052;-75
2021/05/11 15:15:22;;;;;;;9.88;3.03;;;18.10;72.90;;;;;;5065438;28;20083;-75
2021/05/11 15:20:15;;;;;;;6.50;3.72;;;18.30;75.10;;;;;;5072288;28;20819;-75
2021/05/11 15:22:42;;;;;;;7.57;4.05;;;18.30;75.30;;;;;;5088602;28;20065;-77
2021/05/11 15:25:08;;;;;;;7.45;3.90;;;18.30;75.10;;;;;;5072318;28;20461;-76
2021/05/11 15:27:35;;;;;;;7.57;4.30;;;18.20;75.50;;;;;;5075020;28;20057;-76
2021/05/11 15:30:03;;;;;;;9.52;4.05;;;18.20;75.80;;;;;;5050797;28;20029;-76
2021/05/11 15:32:42;;;;;;;10.88;4.90;;;18.10;76.20;;;;;;5066457;28;20025;-76
2021/05/11 15:35:09;;;;;;;10.65;3.50;;;18.20;76.30;;;;;;5070171;28;20041;-76
2021/05/11 15:37:36;;;;;;;9.20;3.50;;;18.10;76.20;;;;;;5062244;28;20468;-76
2021/05/11 15:40:15;;;;;;;10.15;4.53;;;18.10;76.90;;;;;;5064503;28;20062;-76
2021/05/11 15:42:40;;;;;;;8.18;4.88;;;18.10;76.50;;;;;;5070764;28;20021;-76
2021/05/11 15:45:08;;;;;;;11.93;4.25;;;18.10;76.60;;;;;;5091841;28;20514;-76
2021/05/11 15:47:33;;;;;;;10.32;3.50;;;18.00;76.70;;;;;;5087736;28;20033;-75
2021/05/11 15:49:59;;;;;;;8.35;4.45;;;18.00;76.50;;;;;;5086484;28;20036;-76
2021/05/11 15:52:25;;;;;;;12.68;4.78;;;18.00;76.70;;;;;;5091673;28;20035;-76
2021/05/11 15:54:51;;;;;;;9.02;4.55;;;18.00;77.10;;;;;;5075268;28;20066;-76
2021/05/11 15:57:17;;;;;;;14.40;4.60;;;18.00;77.20;;;;;;5092532;28;20028;-76
2021/05/11 15:59:43;;;;;;;13.85;4.55;;;17.90;77.40;;;;;;5092606;28;20024;-76
2021/05/11 16:02:12;;;;;;;10.65;4.30;;;17.90;77.70;;;;;;5092629;28;20111;-76
2021/05/11 16:04:38;;;;;;;8.32;3.88;;;17.90;78.00;;;;;;5091959;28;20028;-76
2021/05/11 16:07:04;;;;;;;7.53;3.15;;;17.80;78.10;;;;;;5092469;28;20120;-76
2021/05/11 16:09:30;;;;;;;9.70;4.60;;;17.80;78.00;;;;;;5073542;28;20073;-76
2021/05/11 16:11:55;;;;;;;12.43;4.65;;;17.80;78.00;;;;;;5092519;28;20396;-76
2021/05/11 16:14:21;;;;;;;9.73;4.30;;;17.80;78.40;;;;;;5092025;28;20078;-76
2021/05/11 16:16:47;;;;;;;9.65;4.47;;;17.80;78.70;;;;;;5074134;28;20028;-76
2021/05/11 16:19:12;;;;;;;10.65;4.13;;;17.80;78.80;;;;;;5095305;28;20043;-76
2021/05/11 16:21:39;;;;;;;14.10;4.80;;;17.70;78.70;;;;;;5074385;28;20035;-76
2021/05/11 16:24:04;;;;;;;10.85;4.80;;;17.80;78.60;;;;;;5104644;28;20025;-76
2021/05/11 16:26:31;;;;;;;11.27;4.80;;;17.70;78.60;;;;;;5092038;28;20024;-76
2021/05/11 16:28:56;;;;;;;14.02;5.63;;;17.60;78.80;;;;;;5092036;28;20019;-76
2021/05/11 16:31:23;;;;;;;7.22;4.55;;;17.50;78.90;;;;;;5092253;28;20032;-76
2021/05/11 16:33:50;;;;;;;10.65;4.90;;;17.40;79.70;;;;;;5074518;28;20392;-76
2021/05/11 16:36:15;;;;;;;10.13;4.97;;;17.30;79.40;;;;;;5091977;28;20025;-76
2021/05/11 16:38:41;;;;;;;9.90;4.55;;;17.20;79.90;;;;;;5089305;28;20035;-76
2021/05/11 16:41:08;;;;;;;10.88;4.70;;;17.10;80.50;;;;;;5091832;28;20101;-76
2021/05/11 16:43:34;;;;;;;7.63;5.32;;;17.10;80.90;;;;;;5091538;28;20060;-76
2021/05/11 16:46:05;;;;;;;7.40;4.80;;;17.00;81.20;;;;;;5077558;28;20035;-76
2021/05/11 16:48:32;;;;;;;10.05;4.57;;;16.90;81.40;;;;;;5080075;28;20100;-76
2021/05/11 16:50:58;;;;;;;9.75;5.20;;;16.90;81.90;;;;;;5075697;28;20044;-76
2021/05/11 16:53:24;;;;;;;11.38;5.22;;;16.90;82.30;;;;;;5057863;28;20544;-76
2021/05/11 16:55:50;;;;;;;11.25;5.57;;;16.80;82.60;;;;;;5058072;28;20024;-76
2021/05/11 16:58:15;;;;;;;10.43;5.40;;;16.80;82.90;;;;;;5057944;28;20504;-76
2021/05/11 17:00:43;;;;;;;12.25;5.18;;;16.90;82.80;;;;;;5072271;28;20028;-76
2021/05/11 17:03:09;;;;;;;9.93;5.07;;;16.90;82.70;;;;;;5086439;28;20063;-76
2021/05/11 17:05:36;;;;;;;10.25;5.07;;;16.90;82.50;;;;;;5099167;28;20066;-76
2021/05/11 17:08:02;;;;;;;10.88;5.40;;;17.00;82.60;;;;;;5096757;28;20055;-76
2021/05/11 17:10:29;;;;;;;9.65;4.85;;;16.90;82.50;;;;;;5094712;28;20030;-76
2021/05/11 17:12:57;;;;;;;10.00;4.90;;;17.00;82.20;;;;;;5094997;28;20389;-76
2021/05/11 17:15:23;;;;;;;10.32;5.05;;;17.00;82.30;;;;;;5065284;28;20479;-76